Terminal Aerodrome Forecast
Issued by NWS Louisville, KY

Home | Current Version | Previous Version | Text Only | Print | Product List | Glossary On
Versions: 1 2 3 4 5 6 7 8 9 10 11 12 13
902
FTUS43 KLMK 281723
TAFBWG
TAF
KBWG 281723Z 2818/2918 10006KT P6SM SCT040
     FM281900 08004KT P6SM VCTS SCT040CB SCT250
     FM290100 VRB02KT P6SM FEW100
     FM290800 00000KT 4SM BR FEW200
     FM291200 VRB03KT P6SM SCT040 SCT250=

USA.gov is the U.S. government's official web portal to all federal, state and local government web resources and services.